Aérodrome :
LOGIN :

S'inscrire | Disclaimer

   EN    FR    IT 

 










Légende :    VFR   VFR Marginal   IFR   IFR Intensif   IFR Très Intensif
Visi : 
Plafond : 
>= 8 km
>= 3000ft
5 à 8 km
1000 à 3000 ft
1500m à 5 km
500 à 1000 ft
800 à 1500m
200 à 500 ft
< 800m
< 200 ft
Symboles :   Orages  Brouillard  Fortes neiges  Fortes précipitations  Vent > 20 kt
SIGMETs :   Divers  Orages  Givrage  Turbulence  Onde Orograph.  Cendres Volcan.







- Altitude de l'aérodrome : 370 ft


EBBE - Beauvechain AB

DERNIER METAR :
  • 150925Z 22007KT 9999 BKN007 03/01 Q0994 GRN GRN

METARs EXPIRÉS :
  • 150855Z 22011KT 9999 BKN007 03/01 Q0993 GRN GRN
  • 150825Z 21008KT 9999 FEW006 BKN009 03/02 Q0993 GRN GRN
  • 150755Z 21008KT 9999 FEW006 BKN009 BKN012 03/02 Q0993 GRN GRN
  • 150725Z 22008KT 4000 -DZ FEW006 BKN009 BKN012 03/02 Q0993 GRN GRN
  • 150655Z 22010KT 9999 SCT009 BKN011 03/01 Q0993 GRN GRN

TAF TAF EBBE
Valide du 15 à 10h jusqu'au 15 à 19h UTC


150841Z 1510/1519 21008KT 9999 SCT010 BKN015
TEMPO 1510/1512 SCT015 SCT020
TEMPO 1512/1517 5000 -SHRA SCT010 BKN013
PROB30
TEMPO 1512/1517 3000 -SHRASN SCT008 BKN012
Pas de NOTAMs connus pour ce terrain.



MET'MAP, la Météo Aéronautique d'un coup d'oeil ! - Copyright ORBIFLY Décembre 2007 - Disclaimer

ORBIFLY MET'MAP TEAM :

Programmation & Développement : Alexandra Zaïnal
Conception & Développement : Baudouin d'Aumeries
Co-Programmation & Développement : Marc-Olivier Méhu
Soutien technique & logistique : Manuel Goepfert

Contact : metmap@orbifly.com




SOURCES & CREDITS :

   NOAA